sensor_id;sensor_type;location;lat;lon;timestamp;pressure;altitude;pressure_sealevel;temperature;humidity
35655;BME280;21773;50.010;19.972;2023-03-13T00:01:45;98300.09;;;10.10;36.66
35655;BME280;21773;50.010;19.972;2023-03-13T00:04:50;98320.31;;;10.31;36.48
35655;BME280;21773;50.010;19.972;2023-03-13T00:07:53;98314.78;;;10.37;36.69
35655;BME280;21773;50.010;19.972;2023-03-13T00:10:57;98320.41;;;10.48;36.67
35655;BME280;21773;50.010;19.972;2023-03-13T00:14:03;98323.09;;;10.48;36.93
35655;BME280;21773;50.010;19.972;2023-03-13T00:17:07;98322.19;;;10.54;37.13
35655;BME280;21773;50.010;19.972;2023-03-13T00:20:11;98337.88;;;10.57;37.03
35655;BME280;21773;50.010;19.972;2023-03-13T00:23:14;98342.91;;;10.53;37.30
35655;BME280;21773;50.010;19.972;2023-03-13T00:26:20;98346.66;;;10.64;37.24
35655;BME280;21773;50.010;19.972;2023-03-13T00:29:25;98341.28;;;10.64;37.31
35655;BME280;21773;50.010;19.972;2023-03-13T00:32:28;98322.41;;;10.52;39.20
35655;BME280;21773;50.010;19.972;2023-03-13T00:35:32;98314.69;;;10.44;39.83
35655;BME280;21773;50.010;19.972;2023-03-13T00:38:35;98311.66;;;10.40;40.43
35655;BME280;21773;50.010;19.972;2023-03-13T00:41:38;98314.44;;;10.46;40.46
35655;BME280;21773;50.010;19.972;2023-03-13T00:44:43;98294.41;;;10.53;40.51
35655;BME280;21773;50.010;19.972;2023-03-13T00:47:46;98282.19;;;10.62;40.52
35655;BME280;21773;50.010;19.972;2023-03-13T00:50:51;98282.09;;;10.69;40.37
35655;BME280;21773;50.010;19.972;2023-03-13T00:53:55;98290.84;;;10.76;40.39
35655;BME280;21773;50.010;19.972;2023-03-13T00:57:00;98287.91;;;10.77;40.06
35655;BME280;21773;50.010;19.972;2023-03-13T01:00:07;98287.31;;;10.75;40.06
35655;BME280;21773;50.010;19.972;2023-03-13T01:03:10;98286.66;;;10.68;40.86
35655;BME280;21773;50.010;19.972;2023-03-13T01:06:16;98274.56;;;10.71;41.03
35655;BME280;21773;50.010;19.972;2023-03-13T01:09:20;98285.94;;;10.73;41.22
35655;BME280;21773;50.010;19.972;2023-03-13T01:12:23;98279.50;;;10.74;41.45
35655;BME280;21773;50.010;19.972;2023-03-13T01:15:28;98277.03;;;10.72;41.79
35655;BME280;21773;50.010;19.972;2023-03-13T01:18:32;98267.41;;;10.76;41.84
35655;BME280;21773;50.010;19.972;2023-03-13T01:21:36;98259.66;;;10.80;41.92
35655;BME280;21773;50.010;19.972;2023-03-13T01:24:39;98256.06;;;10.74;41.98
35655;BME280;21773;50.010;19.972;2023-03-13T01:27:42;98249.84;;;10.62;42.56
35655;BME280;21773;50.010;19.972;2023-03-13T01:30:47;98252.88;;;10.66;42.17
35655;BME280;21773;50.010;19.972;2023-03-13T01:33:53;98249.28;;;10.60;42.63
35655;BME280;21773;50.010;19.972;2023-03-13T01:36:57;98246.34;;;10.62;42.53
35655;BME280;21773;50.010;19.972;2023-03-13T01:40:00;98252.66;;;10.67;42.32
35655;BME280;21773;50.010;19.972;2023-03-13T01:43:15;98251.38;;;10.70;42.21
35655;BME280;21773;50.010;19.972;2023-03-13T01:46:30;98257.66;;;10.75;42.25
35655;BME280;21773;50.010;19.972;2023-03-13T01:50:01;98251.94;;;10.83;42.43
35655;BME280;21773;50.010;19.972;2023-03-13T01:53:24;98241.06;;;10.67;42.73
35655;BME280;21773;50.010;19.972;2023-03-13T01:56:34;98252.97;;;10.82;42.47
35655;BME280;21773;50.010;19.972;2023-03-13T01:59:41;98263.88;;;10.76;42.72
35655;BME280;21773;50.010;19.972;2023-03-13T02:02:50;98259.56;;;10.75;43.01
35655;BME280;21773;50.010;19.972;2023-03-13T02:05:57;98264.25;;;10.68;43.14
35655;BME280;21773;50.010;19.972;2023-03-13T02:09:07;98278.91;;;10.72;43.01
35655;BME280;21773;50.010;19.972;2023-03-13T02:12:14;98283.91;;;10.80;42.66
35655;BME280;21773;50.010;19.972;2023-03-13T02:15:21;98287.81;;;10.84;42.85
35655;BME280;21773;50.010;19.972;2023-03-13T02:18:27;98275.94;;;10.85;42.86
35655;BME280;21773;50.010;19.972;2023-03-13T02:21:36;98277.56;;;10.86;42.79
35655;BME280;21773;50.010;19.972;2023-03-13T02:24:47;98289.91;;;10.82;43.09
35655;BME280;21773;50.010;19.972;2023-03-13T02:27:57;98286.72;;;10.85;43.31
35655;BME280;21773;50.010;19.972;2023-03-13T02:31:05;98295.84;;;10.96;43.02
35655;BME280;21773;50.010;19.972;2023-03-13T02:34:10;98297.94;;;11.05;42.89
35655;BME280;21773;50.010;19.972;2023-03-13T02:37:16;98296.97;;;11.11;42.98
35655;BME280;21773;50.010;19.972;2023-03-13T02:40:23;98298.72;;;11.17;42.85
35655;BME280;21773;50.010;19.972;2023-03-13T02:43:32;98317.13;;;11.20;42.90
35655;BME280;21773;50.010;19.972;2023-03-13T02:46:47;98320.78;;;11.14;43.29
35655;BME280;21773;50.010;19.972;2023-03-13T02:49:53;98321.13;;;11.18;43.28
35655;BME280;21773;50.010;19.972;2023-03-13T02:52:58;98325.00;;;11.22;42.99
35655;BME280;21773;50.010;19.972;2023-03-13T02:56:04;98322.06;;;11.23;43.36
35655;BME280;21773;50.010;19.972;2023-03-13T02:59:10;98328.41;;;11.17;43.29
35655;BME280;21773;50.010;19.972;2023-03-13T03:02:17;98334.94;;;11.33;43.26
35655;BME280;21773;50.010;19.972;2023-03-13T03:05:20;98338.16;;;11.18;43.65
35655;BME280;21773;50.010;19.972;2023-03-13T03:08:24;98333.19;;;11.27;43.60
35655;BME280;21773;50.010;19.972;2023-03-13T03:11:28;98332.69;;;11.30;43.78
35655;BME280;21773;50.010;19.972;2023-03-13T03:14:37;98325.81;;;11.22;43.99
35655;BME280;21773;50.010;19.972;2023-03-13T03:17:41;98337.75;;;11.26;44.24
35655;BME280;21773;50.010;19.972;2023-03-13T03:20:44;98330.50;;;11.27;44.30
35655;BME280;21773;50.010;19.972;2023-03-13T03:23:48;98329.28;;;11.35;44.04
35655;BME280;21773;50.010;19.972;2023-03-13T03:26:52;98331.97;;;11.35;43.99
35655;BME280;21773;50.010;19.972;2023-03-13T03:30:01;98333.72;;;11.41;44.12
35655;BME280;21773;50.010;19.972;2023-03-13T03:33:07;98330.88;;;11.47;43.91
35655;BME280;21773;50.010;19.972;2023-03-13T03:36:12;98335.31;;;11.53;44.08
35655;BME280;21773;50.010;19.972;2023-03-13T03:39:18;98337.47;;;11.40;44.49
35655;BME280;21773;50.010;19.972;2023-03-13T03:42:22;98331.13;;;11.46;44.22
35655;BME280;21773;50.010;19.972;2023-03-13T03:45:27;98328.19;;;11.47;44.33
35655;BME280;21773;50.010;19.972;2023-03-13T03:48:31;98330.88;;;11.47;44.46
35655;BME280;21773;50.010;19.972;2023-03-13T03:51:38;98341.53;;;11.54;44.51
35655;BME280;21773;50.010;19.972;2023-03-13T03:54:41;98339.41;;;11.56;44.42
35655;BME280;21773;50.010;19.972;2023-03-13T03:57:46;98338.78;;;11.65;44.17
35655;BME280;21773;50.010;19.972;2023-03-13T04:00:59;98335.13;;;11.71;44.17
35655;BME280;21773;50.010;19.972;2023-03-13T04:04:02;98336.63;;;11.79;44.29
35655;BME280;21773;50.010;19.972;2023-03-13T04:07:06;98336.16;;;11.82;44.16
35655;BME280;21773;50.010;19.972;2023-03-13T04:10:10;98336.50;;;11.86;44.28
35655;BME280;21773;50.010;19.972;2023-03-13T04:13:17;98344.91;;;11.89;44.33
35655;BME280;21773;50.010;19.972;2023-03-13T04:16:23;98335.75;;;11.90;44.40
35655;BME280;21773;50.010;19.972;2023-03-13T04:19:28;98334.19;;;11.94;44.16
35655;BME280;21773;50.010;19.972;2023-03-13T04:22:31;98345.41;;;11.86;44.53
35655;BME280;21773;50.010;19.972;2023-03-13T04:25:36;98346.56;;;11.90;44.65
35655;BME280;21773;50.010;19.972;2023-03-13T04:28:43;98336.31;;;11.76;45.09
35655;BME280;21773;50.010;19.972;2023-03-13T04:31:52;98350.72;;;11.81;45.08
35655;BME280;21773;50.010;19.972;2023-03-13T04:35:16;98346.22;;;11.87;44.79
35655;BME280;21773;50.010;19.972;2023-03-13T04:38:33;98344.50;;;11.81;45.13
35655;BME280;21773;50.010;19.972;2023-03-13T04:41:37;98337.22;;;11.81;45.11
35655;BME280;21773;50.010;19.972;2023-03-13T04:44:43;98337.22;;;11.81;45.01
35655;BME280;21773;50.010;19.972;2023-03-13T04:48:20;98333.94;;;11.79;45.55
35655;BME280;21773;50.010;19.972;2023-03-13T04:51:34;98334.53;;;11.81;45.46
35655;BME280;21773;50.010;19.972;2023-03-13T04:54:51;98343.00;;;11.73;45.90
35655;BME280;21773;50.010;19.972;2023-03-13T04:58:15;98342.28;;;11.78;45.76
35655;BME280;21773;50.010;19.972;2023-03-13T05:01:38;98340.06;;;11.75;45.88
35655;BME280;21773;50.010;19.972;2023-03-13T05:04:58;98340.38;;;11.78;46.00
35655;BME280;21773;50.010;19.972;2023-03-13T05:08:24;98338.13;;;11.87;45.64
35655;BME280;21773;50.010;19.972;2023-03-13T05:11:38;98336.81;;;11.89;45.89
35655;BME280;21773;50.010;19.972;2023-03-13T05:15:01;98330.84;;;11.87;46.02
35655;BME280;21773;50.010;19.972;2023-03-13T05:18:27;98332.22;;;11.90;45.88
35655;BME280;21773;50.010;19.972;2023-03-13T05:21:57;98332.81;;;11.92;46.31
35655;BME280;21773;50.010;19.972;2023-03-13T05:25:21;98333.38;;;11.94;46.01
35655;BME280;21773;50.010;19.972;2023-03-13T05:28:44;98324.38;;;11.88;46.26
35655;BME280;21773;50.010;19.972;2023-03-13T05:32:11;98318.00;;;11.94;46.27
35655;BME280;21773;50.010;19.972;2023-03-13T05:35:33;98319.63;;;11.95;46.62
35655;BME280;21773;50.010;19.972;2023-03-13T05:38:58;98303.38;;;12.07;46.29
35655;BME280;21773;50.010;19.972;2023-03-13T05:42:21;98309.97;;;11.99;46.19
35655;BME280;21773;50.010;19.972;2023-03-13T05:45:43;98307.69;;;12.08;46.39
35655;BME280;21773;50.010;19.972;2023-03-13T05:49:09;98314.22;;;12.12;46.53
35655;BME280;21773;50.010;19.972;2023-03-13T05:52:33;98305.97;;;12.02;46.87
35655;BME280;21773;50.010;19.972;2023-03-13T05:55:41;98311.22;;;12.08;46.67
35655;BME280;21773;50.010;19.972;2023-03-13T05:59:10;98307.94;;;12.06;46.90
35655;BME280;21773;50.010;19.972;2023-03-13T06:02:37;98305.81;;;12.08;47.18
35655;BME280;21773;50.010;19.972;2023-03-13T06:05:43;98303.19;;;12.13;47.09
35655;BME280;21773;50.010;19.972;2023-03-13T06:09:05;98301.53;;;12.12;47.39
35655;BME280;21773;50.010;19.972;2023-03-13T06:12:12;98302.59;;;12.28;47.19
35655;BME280;21773;50.010;19.972;2023-03-13T06:15:16;98304.25;;;12.29;46.94
35655;BME280;21773;50.010;19.972;2023-03-13T06:18:40;98299.16;;;12.33;46.43
35655;BME280;21773;50.010;19.972;2023-03-13T06:21:43;98296.28;;;12.39;46.27
35655;BME280;21773;50.010;19.972;2023-03-13T06:24:46;98296.94;;;12.46;46.07
35655;BME280;21773;50.010;19.972;2023-03-13T06:27:52;98292.53;;;12.40;46.12
35655;BME280;21773;50.010;19.972;2023-03-13T06:31:00;98305.69;;;12.53;45.94
35655;BME280;21773;50.010;19.972;2023-03-13T06:34:03;98306.84;;;12.57;45.83
35655;BME280;21773;50.010;19.972;2023-03-13T06:37:06;98297.13;;;12.78;45.23
35655;BME280;21773;50.010;19.972;2023-03-13T06:40:11;98285.56;;;12.83;45.13
35655;BME280;21773;50.010;19.972;2023-03-13T06:43:16;98288.47;;;12.98;44.83
35655;BME280;21773;50.010;19.972;2023-03-13T06:46:21;98293.69;;;13.05;44.69
35655;BME280;21773;50.010;19.972;2023-03-13T06:49:24;98291.00;;;13.10;44.55
35655;BME280;21773;50.010;19.972;2023-03-13T06:52:27;98295.97;;;13.13;44.20
35655;BME280;21773;50.010;19.972;2023-03-13T06:55:45;98289.28;;;13.20;44.03
35655;BME280;21773;50.010;19.972;2023-03-13T06:58:51;98291.28;;;13.30;43.80
35655;BME280;21773;50.010;19.972;2023-03-13T07:01:54;98297.47;;;13.25;43.84
35655;BME280;21773;50.010;19.972;2023-03-13T07:04:57;98288.69;;;13.40;43.72
35655;BME280;21773;50.010;19.972;2023-03-13T07:08:01;98280.50;;;13.57;43.41
35655;BME280;21773;50.010;19.972;2023-03-13T07:11:06;98281.09;;;13.91;42.83
35655;BME280;21773;50.010;19.972;2023-03-13T07:14:11;98277.72;;;14.10;42.27
35655;BME280;21773;50.010;19.972;2023-03-13T07:17:18;98271.91;;;14.65;41.34
35655;BME280;21773;50.010;19.972;2023-03-13T07:20:21;98279.00;;;15.39;40.02
35655;BME280;21773;50.010;19.972;2023-03-13T07:23:27;98282.09;;;15.98;38.91
35655;BME280;21773;50.010;19.972;2023-03-13T07:26:31;98274.75;;;16.34;38.30
35655;BME280;21773;50.010;19.972;2023-03-13T07:29:36;98283.75;;;16.34;38.25
35655;BME280;21773;50.010;19.972;2023-03-13T07:32:39;98278.81;;;16.72;37.92
35655;BME280;21773;50.010;19.972;2023-03-13T07:35:50;98278.53;;;16.73;37.35
35655;BME280;21773;50.010;19.972;2023-03-13T07:38:53;98274.88;;;17.13;36.89
35655;BME280;21773;50.010;19.972;2023-03-13T07:41:57;98267.97;;;17.80;35.82
35655;BME280;21773;50.010;19.972;2023-03-13T07:45:03;98258.44;;;18.74;34.56
35655;BME280;21773;50.010;19.972;2023-03-13T07:48:07;98258.56;;;19.30;33.58
35655;BME280;21773;50.010;19.972;2023-03-13T07:51:13;98253.44;;;19.85;32.74
35655;BME280;21773;50.010;19.972;2023-03-13T07:54:17;98246.28;;;20.54;31.54
35655;BME280;21773;50.010;19.972;2023-03-13T07:57:20;98230.69;;;21.09;30.93
35655;BME280;21773;50.010;19.972;2023-03-13T08:00:25;98230.94;;;21.62;30.30
35655;BME280;21773;50.010;19.972;2023-03-13T08:03:29;98230.44;;;22.49;29.26
35655;BME280;21773;50.010;19.972;2023-03-13T08:06:33;98223.22;;;22.84;28.68
35655;BME280;21773;50.010;19.972;2023-03-13T08:09:37;98234.75;;;22.95;27.97
35655;BME280;21773;50.010;19.972;2023-03-13T08:12:42;98240.44;;;22.67;28.37
35655;BME280;21773;50.010;19.972;2023-03-13T08:15:47;98231.47;;;22.84;28.41
35655;BME280;21773;50.010;19.972;2023-03-13T08:18:53;98223.75;;;22.33;28.83
35655;BME280;21773;50.010;19.972;2023-03-13T08:21:56;98226.38;;;22.16;28.52
35655;BME280;21773;50.010;19.972;2023-03-13T08:24:59;98207.00;;;22.74;28.13
35655;BME280;21773;50.010;19.972;2023-03-13T08:28:03;98215.44;;;23.25;27.46
35655;BME280;21773;50.010;19.972;2023-03-13T08:31:09;98206.69;;;23.32;27.62
35655;BME280;21773;50.010;19.972;2023-03-13T08:34:14;98215.50;;;22.64;28.22
35655;BME280;21773;50.010;19.972;2023-03-13T08:37:18;98213.59;;;22.11;29.01
35655;BME280;21773;50.010;19.972;2023-03-13T08:40:21;98204.75;;;21.20;30.20
35655;BME280;21773;50.010;19.972;2023-03-13T08:43:24;98197.63;;;20.78;30.73
35655;BME280;21773;50.010;19.972;2023-03-13T08:46:31;98197.34;;;20.66;31.29
35655;BME280;21773;50.010;19.972;2023-03-13T08:49:35;98195.31;;;20.71;30.86
35655;BME280;21773;50.010;19.972;2023-03-13T08:52:38;98194.06;;;20.37;31.73
35655;BME280;21773;50.010;19.972;2023-03-13T08:55:41;98189.81;;;20.12;31.80
35655;BME280;21773;50.010;19.972;2023-03-13T08:58:48;98188.25;;;19.92;32.05
35655;BME280;21773;50.010;19.972;2023-03-13T09:01:53;98185.41;;;19.97;31.91
35655;BME280;21773;50.010;19.972;2023-03-13T09:04:57;98184.22;;;20.49;30.85
35655;BME280;21773;50.010;19.972;2023-03-13T09:08:00;98170.03;;;20.74;30.54
35655;BME280;21773;50.010;19.972;2023-03-13T09:11:05;98171.34;;;21.18;29.46
35655;BME280;21773;50.010;19.972;2023-03-13T09:14:09;98172.81;;;21.60;28.89
35655;BME280;21773;50.010;19.972;2023-03-13T09:17:14;98171.91;;;22.09;28.27
35655;BME280;21773;50.010;19.972;2023-03-13T09:20:17;98178.09;;;22.15;27.96
35655;BME280;21773;50.010;19.972;2023-03-13T09:23:21;98156.63;;;22.48;27.91
35655;BME280;21773;50.010;19.972;2023-03-13T09:26:25;98160.22;;;23.05;27.22
35655;BME280;21773;50.010;19.972;2023-03-13T09:29:29;98159.72;;;23.03;26.47
35655;BME280;21773;50.010;19.972;2023-03-13T09:32:35;98171.31;;;23.48;26.08
35655;BME280;21773;50.010;19.972;2023-03-13T09:35:39;98158.69;;;23.64;26.25
35655;BME280;21773;50.010;19.972;2023-03-13T09:38:43;98161.88;;;23.92;25.48
35655;BME280;21773;50.010;19.972;2023-03-13T09:41:52;98159.59;;;24.20;25.12
35655;BME280;21773;50.010;19.972;2023-03-13T09:45:00;98161.81;;;24.43;25.34
35655;BME280;21773;50.010;19.972;2023-03-13T09:48:12;98153.28;;;24.66;24.59
35655;BME280;21773;50.010;19.972;2023-03-13T09:51:25;98151.72;;;25.15;24.03
35655;BME280;21773;50.010;19.972;2023-03-13T09:54:34;98151.25;;;25.13;23.88
35655;BME280;21773;50.010;19.972;2023-03-13T09:57:47;98135.00;;;25.40;23.71
35655;BME280;21773;50.010;19.972;2023-03-13T10:00:54;98144.66;;;25.88;23.22
35655;BME280;21773;50.010;19.972;2023-03-13T10:04:05;98134.78;;;25.66;23.20
35655;BME280;21773;50.010;19.972;2023-03-13T10:07:10;98140.78;;;25.48;23.30
35655;BME280;21773;50.010;19.972;2023-03-13T10:10:15;98124.78;;;25.41;23.19
35655;BME280;21773;50.010;19.972;2023-03-13T10:13:25;98117.75;;;25.43;23.62
35655;BME280;21773;50.010;19.972;2023-03-13T10:16:34;98107.75;;;25.60;23.17
35655;BME280;21773;50.010;19.972;2023-03-13T10:19:42;98114.63;;;25.86;22.82
35655;BME280;21773;50.010;19.972;2023-03-13T10:22:50;98125.81;;;25.90;22.78
35655;BME280;21773;50.010;19.972;2023-03-13T10:25:56;98102.34;;;25.96;22.33
35655;BME280;21773;50.010;19.972;2023-03-13T10:29:16;98112.47;;;25.92;22.32
35655;BME280;21773;50.010;19.972;2023-03-13T10:32:27;98097.63;;;25.97;22.33
35655;BME280;21773;50.010;19.972;2023-03-13T10:35:35;98093.38;;;25.66;22.52
35655;BME280;21773;50.010;19.972;2023-03-13T10:38:48;98086.91;;;25.83;22.82
35655;BME280;21773;50.010;19.972;2023-03-13T10:41:57;98085.28;;;25.82;22.50
35655;BME280;21773;50.010;19.972;2023-03-13T10:45:05;98076.22;;;26.39;22.07
35655;BME280;21773;50.010;19.972;2023-03-13T10:48:12;98078.03;;;26.59;21.07
35655;BME280;21773;50.010;19.972;2023-03-13T10:51:21;98054.91;;;26.27;21.07
35655;BME280;21773;50.010;19.972;2023-03-13T10:54:27;98053.84;;;26.32;20.67
35655;BME280;21773;50.010;19.972;2023-03-13T10:57:32;98046.66;;;26.06;21.40
35655;BME280;21773;50.010;19.972;2023-03-13T11:00:37;98043.63;;;25.87;20.62
35655;BME280;21773;50.010;19.972;2023-03-13T11:03:42;98046.66;;;25.61;21.06
35655;BME280;21773;50.010;19.972;2023-03-13T11:06:50;98050.94;;;25.38;21.55
35655;BME280;21773;50.010;19.972;2023-03-13T11:09:58;98058.78;;;24.86;22.14
35655;BME280;21773;50.010;19.972;2023-03-13T11:13:03;98038.78;;;24.39;22.50
35655;BME280;21773;50.010;19.972;2023-03-13T11:16:17;98033.00;;;24.61;22.59
35655;BME280;21773;50.010;19.972;2023-03-13T11:19:48;98030.72;;;24.34;22.78
35655;BME280;21773;50.010;19.972;2023-03-13T11:23:11;98021.09;;;24.10;22.48
35655;BME280;21773;50.010;19.972;2023-03-13T11:26:24;98025.56;;;23.86;23.12
35655;BME280;21773;50.010;19.972;2023-03-13T11:29:37;98027.44;;;23.39;23.34
35655;BME280;21773;50.010;19.972;2023-03-13T11:32:47;98021.13;;;22.78;23.62
35655;BME280;21773;50.010;19.972;2023-03-13T11:36:00;98016.25;;;22.58;24.32
35655;BME280;21773;50.010;19.972;2023-03-13T11:39:31;98012.56;;;22.14;24.59
35655;BME280;21773;50.010;19.972;2023-03-13T11:43:08;98006.31;;;21.91;25.43
35655;BME280;21773;50.010;19.972;2023-03-13T11:46:35;98005.25;;;21.39;25.52
35655;BME280;21773;50.010;19.972;2023-03-13T11:49:59;97984.84;;;21.09;25.60
35655;BME280;21773;50.010;19.972;2023-03-13T11:53:21;98008.47;;;20.61;25.43
35655;BME280;21773;50.010;19.972;2023-03-13T11:56:31;97985.28;;;20.04;26.45
35655;BME280;21773;50.010;19.972;2023-03-13T11:59:44;97980.94;;;20.03;26.55
35655;BME280;21773;50.010;19.972;2023-03-13T12:02:55;97973.84;;;19.74;26.49
35655;BME280;21773;50.010;19.972;2023-03-13T12:06:14;97972.19;;;19.60;26.87
35655;BME280;21773;50.010;19.972;2023-03-13T12:09:33;97963.41;;;19.63;27.15
35655;BME280;21773;50.010;19.972;2023-03-13T12:12:45;97956.88;;;19.45;26.96
35655;BME280;21773;50.010;19.972;2023-03-13T12:15:52;97963.41;;;19.49;27.21
35655;BME280;21773;50.010;19.972;2023-03-13T12:18:56;97941.13;;;19.56;27.34
35655;BME280;21773;50.010;19.972;2023-03-13T12:22:11;97954.06;;;19.50;27.00
35655;BME280;21773;50.010;19.972;2023-03-13T12:25:20;97933.00;;;19.51;27.39
35655;BME280;21773;50.010;19.972;2023-03-13T12:28:29;97919.16;;;19.47;27.85
35655;BME280;21773;50.010;19.972;2023-03-13T12:31:36;97921.13;;;19.41;28.06
35655;BME280;21773;50.010;19.972;2023-03-13T12:34:51;97847.88;;;18.84;28.38
35655;BME280;21773;50.010;19.972;2023-03-13T12:38:02;97912.41;;;19.26;28.56
35655;BME280;21773;50.010;19.972;2023-03-13T12:41:16;97910.38;;;19.18;28.13
35655;BME280;21773;50.010;19.972;2023-03-13T12:44:23;97913.53;;;19.38;28.21
35655;BME280;21773;50.010;19.972;2023-03-13T12:47:31;97889.44;;;19.40;27.65
35655;BME280;21773;50.010;19.972;2023-03-13T12:50:43;97891.06;;;19.41;27.50
35655;BME280;21773;50.010;19.972;2023-03-13T12:54:10;97885.53;;;19.60;27.23
35655;BME280;21773;50.010;19.972;2023-03-13T12:57:29;97884.19;;;19.85;26.89
35655;BME280;21773;50.010;19.972;2023-03-13T13:00:43;97870.28;;;19.95;26.75
35655;BME280;21773;50.010;19.972;2023-03-13T13:03:51;97873.09;;;20.04;26.53
35655;BME280;21773;50.010;19.972;2023-03-13T13:06:59;97880.41;;;20.08;26.75
35655;BME280;21773;50.010;19.972;2023-03-13T13:10:17;97882.25;;;19.85;26.21
35655;BME280;21773;50.010;19.972;2023-03-13T13:13:29;97884.00;;;19.81;26.78
35655;BME280;21773;50.010;19.972;2023-03-13T13:16:34;97879.13;;;19.65;26.32
35655;BME280;21773;50.010;19.972;2023-03-13T13:19:44;97883.00;;;19.50;26.24
35655;BME280;21773;50.010;19.972;2023-03-13T13:22:48;97867.66;;;19.35;26.52
35655;BME280;21773;50.010;19.972;2023-03-13T13:25:54;97866.94;;;19.02;26.50
35655;BME280;21773;50.010;19.972;2023-03-13T13:29:00;97874.53;;;19.06;27.29
35655;BME280;21773;50.010;19.972;2023-03-13T13:32:12;97864.63;;;18.96;27.38
35655;BME280;21773;50.010;19.972;2023-03-13T13:35:26;97877.75;;;18.94;27.51
35655;BME280;21773;50.010;19.972;2023-03-13T13:38:30;97880.84;;;18.87;27.96
35655;BME280;21773;50.010;19.972;2023-03-13T13:41:38;97871.03;;;18.86;28.81
35655;BME280;21773;50.010;19.972;2023-03-13T13:44:56;97875.19;;;18.84;29.06
35655;BME280;21773;50.010;19.972;2023-03-13T13:48:25;97869.63;;;18.89;28.84
35655;BME280;21773;50.010;19.972;2023-03-13T13:51:31;97880.13;;;18.82;29.96
35655;BME280;21773;50.010;19.972;2023-03-13T13:54:53;97886.28;;;18.74;30.03
35655;BME280;21773;50.010;19.972;2023-03-13T13:57:59;97885.56;;;18.68;30.74
35655;BME280;21773;50.010;19.972;2023-03-13T14:01:05;97885.13;;;18.24;31.85
35655;BME280;21773;50.010;19.972;2023-03-13T14:04:15;97897.75;;;18.19;32.74
35655;BME280;21773;50.010;19.972;2023-03-13T14:07:27;97876.53;;;18.16;33.00
35655;BME280;21773;50.010;19.972;2023-03-13T14:10:35;97867.38;;;18.07;33.33
35655;BME280;21773;50.010;19.972;2023-03-13T14:13:39;97867.44;;;18.02;34.34
35655;BME280;21773;50.010;19.972;2023-03-13T14:16:44;97879.13;;;17.84;35.02
35655;BME280;21773;50.010;19.972;2023-03-13T14:19:50;97864.66;;;17.65;35.57
35655;BME280;21773;50.010;19.972;2023-03-13T14:22:55;97879.63;;;17.44;36.20
35655;BME280;21773;50.010;19.972;2023-03-13T14:26:12;97870.81;;;17.28;36.93
35655;BME280;21773;50.010;19.972;2023-03-13T14:29:18;97859.22;;;17.17;36.89
35655;BME280;21773;50.010;19.972;2023-03-13T14:32:26;97853.94;;;17.02;37.42
35655;BME280;21773;50.010;19.972;2023-03-13T14:35:55;97858.59;;;16.97;37.51
35655;BME280;21773;50.010;19.972;2023-03-13T14:39:16;97845.59;;;17.17;37.55
35655;BME280;21773;50.010;19.972;2023-03-13T14:42:26;97859.16;;;17.22;37.27
35655;BME280;21773;50.010;19.972;2023-03-13T14:45:31;97843.34;;;17.24;37.57
35655;BME280;21773;50.010;19.972;2023-03-13T14:48:36;97852.50;;;17.33;37.27
35655;BME280;21773;50.010;19.972;2023-03-13T14:51:41;97846.19;;;17.14;37.77
35655;BME280;21773;50.010;19.972;2023-03-13T14:54:52;97839.00;;;17.23;37.40
35655;BME280;21773;50.010;19.972;2023-03-13T14:57:57;97828.97;;;16.95;37.99
35655;BME280;21773;50.010;19.972;2023-03-13T15:01:11;97835.28;;;16.91;38.04
35655;BME280;21773;50.010;19.972;2023-03-13T15:04:15;97837.47;;;16.88;37.88
35655;BME280;21773;50.010;19.972;2023-03-13T15:07:22;97812.13;;;16.64;37.89
35655;BME280;21773;50.010;19.972;2023-03-13T15:10:31;97825.03;;;16.77;37.84
35655;BME280;21773;50.010;19.972;2023-03-13T15:13:38;97826.78;;;16.68;37.98
35655;BME280;21773;50.010;19.972;2023-03-13T15:16:41;97800.63;;;16.38;38.24
35655;BME280;21773;50.010;19.972;2023-03-13T15:19:49;97811.09;;;16.55;38.23
35655;BME280;21773;50.010;19.972;2023-03-13T15:22:54;97824.63;;;16.65;37.99
35655;BME280;21773;50.010;19.972;2023-03-13T15:25:58;97827.31;;;16.70;38.20
35655;BME280;21773;50.010;19.972;2023-03-13T15:29:01;97825.63;;;16.74;38.21
35655;BME280;21773;50.010;19.972;2023-03-13T15:32:04;97811.03;;;16.65;38.59
35655;BME280;21773;50.010;19.972;2023-03-13T15:35:21;97823.94;;;16.78;38.73
35655;BME280;21773;50.010;19.972;2023-03-13T15:38:27;97824.19;;;16.82;39.01
35655;BME280;21773;50.010;19.972;2023-03-13T15:41:30;97813.75;;;16.65;39.75
35655;BME280;21773;50.010;19.972;2023-03-13T15:44:34;97817.03;;;16.62;40.06
35655;BME280;21773;50.010;19.972;2023-03-13T15:47:37;97806.97;;;16.58;40.04
35655;BME280;21773;50.010;19.972;2023-03-13T15:50:41;97816.22;;;16.57;40.15
35655;BME280;21773;50.010;19.972;2023-03-13T15:53:46;97804.53;;;16.61;40.26
35655;BME280;21773;50.010;19.972;2023-03-13T15:56:49;97801.03;;;16.56;40.04
35655;BME280;21773;50.010;19.972;2023-03-13T15:59:53;97811.69;;;16.47;40.25
35655;BME280;21773;50.010;19.972;2023-03-13T16:02:57;97799.00;;;16.37;40.60
35655;BME280;21773;50.010;19.972;2023-03-13T16:06:00;97802.47;;;16.43;40.40
35655;BME280;21773;50.010;19.972;2023-03-13T16:09:05;97808.47;;;16.45;40.36
35655;BME280;21773;50.010;19.972;2023-03-13T16:12:09;97804.09;;;16.44;40.42
35655;BME280;21773;50.010;19.972;2023-03-13T16:15:13;97804.47;;;16.32;40.66
35655;BME280;21773;50.010;19.972;2023-03-13T16:18:18;97809.91;;;16.32;40.67
35655;BME280;21773;50.010;19.972;2023-03-13T16:21:24;97807.72;;;16.34;40.47
35655;BME280;21773;50.010;19.972;2023-03-13T16:24:29;97812.41;;;16.29;40.55
35655;BME280;21773;50.010;19.972;2023-03-13T16:27:33;97813.22;;;16.29;40.52